King Philippos — 9HA3023 — position and weather

sailwx.info

Track history (hours):
 
Tides and Currents Weather Stations Pressure Air Temp Water Temp Dewpoint Dewpoint Depression Visibility Wind Speed Wind Dir Waves Ship Positions

King Philippos

Last reported at 2015-Apr-09 02:14 UTC. Time now 2015-Apr-21 19:02 UTC.
Position N 01°55' E 102°20'.
Warning: this ship's position is 12 days out of date.

Length 250 m; draft 8 m.

Type: Tanker. MMSI: 229046000.

Date/timePositionNaut miles runAvg speedWind from/ knotsBaromVisibWave heightAir tempDewpointWater temp
2015-Apr-09 02:14N 01°55' E 102°20'811.1
2015-Apr-09 01:29N 01°51' E 102°27'1111.6
2015-Apr-09 00:31N 01°46' E 102°37'1111.7
2015-Apr-08 23:33N 01°41' E 102°47'7610.9
2015-Apr-08 16:33N 01°16' E 103°59'1 0.6
2015-Apr-08 14:23N 01°17' E 103°58'0 0.0
2015-Apr-08 12:11N 01°17' E 103°58'0 0.0
2015-Apr-08 11:32N 01°17' E 103°58'0 0.0
2015-Apr-08 10:23N 01°17' E 103°58'0 0.0
2015-Apr-08 09:17N 01°17' E 103°58'0 0.0
2015-Apr-08 08:05N 01°17' E 103°58'0 0.0
2015-Apr-08 07:23N 01°17' E 103°58'0 0.1
2015-Apr-08 06:17N 01°17' E 103°58'0 0.0
2015-Apr-08 05:23N 01°17' E 103°58'0 0.0
2015-Apr-08 04:11N 01°17' E 103°58'0 0.0
2015-Apr-08 03:29N 01°17' E 103°58'0 0.0
2015-Apr-08 02:23N 01°17' E 103°58'0 0.3
2015-Apr-08 01:23N 01°17' E 103°59'0 0.0
2015-Apr-08 00:17N 01°17' E 103°59'0 0.0
2015-Apr-07 23:23N 01°17' E 103°59'0 0.0
2015-Apr-07 22:29N 01°17' E 103°59'0 0.0
2015-Apr-07 20:29N 01°17' E 103°59'0 0.1
2015-Apr-07 19:29N 01°17' E 103°59'0 0.1
2015-Apr-07 18:29N 01°17' E 103°59'0 0.1
2015-Apr-07 17:23N 01°17' E 103°58'2 2.0
2015-Apr-07 16:33N 01°16' E 103°57'5 5.0
2015-Apr-07 15:28N 01°12' E 103°53'6 6.5
2015-Apr-07 14:31N 01°10' E 103°48'9 0.2
2015-Apr-06 02:08N 01°17' E 103°44'0 0.0
2015-Apr-04 04:27N 01°18' E 103°43'3 2.9
2015-Apr-04 03:27N 01°16' E 103°46'65 6.9
2015-Apr-03 18:03N 01°40' E 102°45'611.0
2015-Apr-03 17:29N 01°42' E 102°40'1010.9
2015-Apr-03 16:32N 01°46' E 102°30'1110.9
2015-Apr-03 15:29N 01°51' E 102°20'  
Track history (hours):
 
Tides and Currents Weather Stations Pressure Air Temp Water Temp Dewpoint Dewpoint Depression Visibility Wind Speed Wind Dir Waves Ship Positions

King Philippos

Last reported at 2015-Apr-09 02:14 UTC. Time now 2015-Apr-21 19:02 UTC.
Position N 01°55' E 102°20'.
Warning: this ship's position is 12 days out of date.

Length 250 m; draft 8 m.

Type: Tanker. MMSI: 229046000.

Date/timePositionNaut miles runAvg speedWind from/ knotsBaromVisibWave heightAir tempDewpointWater temp
2015-Apr-09 02:14N 01°55' E 102°20'811.1
2015-Apr-09 01:29N 01°51' E 102°27'1111.6
2015-Apr-09 00:31N 01°46' E 102°37'1111.7
2015-Apr-08 23:33N 01°41' E 102°47'7610.9
2015-Apr-08 16:33N 01°16' E 103°59'1 0.6
2015-Apr-08 14:23N 01°17' E 103°58'0 0.0
2015-Apr-08 12:11N 01°17' E 103°58'0 0.0
2015-Apr-08 11:32N 01°17' E 103°58'0 0.0
2015-Apr-08 10:23N 01°17' E 103°58'0 0.0
2015-Apr-08 09:17N 01°17' E 103°58'0 0.0
2015-Apr-08 08:05N 01°17' E 103°58'0 0.0
2015-Apr-08 07:23N 01°17' E 103°58'0 0.1
2015-Apr-08 06:17N 01°17' E 103°58'0 0.0
2015-Apr-08 05:23N 01°17' E 103°58'0 0.0
2015-Apr-08 04:11N 01°17' E 103°58'0 0.0
2015-Apr-08 03:29N 01°17' E 103°58'0 0.0
2015-Apr-08 02:23N 01°17' E 103°58'0 0.3
2015-Apr-08 01:23N 01°17' E 103°59'0 0.0
2015-Apr-08 00:17N 01°17' E 103°59'0 0.0
2015-Apr-07 23:23N 01°17' E 103°59'0 0.0
2015-Apr-07 22:29N 01°17' E 103°59'0 0.0
2015-Apr-07 20:29N 01°17' E 103°59'0 0.1
2015-Apr-07 19:29N 01°17' E 103°59'0 0.1
2015-Apr-07 18:29N 01°17' E 103°59'0 0.1
2015-Apr-07 17:23N 01°17' E 103°58'2 2.0
2015-Apr-07 16:33N 01°16' E 103°57'5 5.0
2015-Apr-07 15:28N 01°12' E 103°53'6 6.5
2015-Apr-07 14:31N 01°10' E 103°48'9 0.2
2015-Apr-06 02:08N 01°17' E 103°44'0 0.0
2015-Apr-04 04:27N 01°18' E 103°43'3 2.9
2015-Apr-04 03:27N 01°16' E 103°46'65 6.9
2015-Apr-03 18:03N 01°40' E 102°45'611.0
2015-Apr-03 17:29N 01°42' E 102°40'1010.9
2015-Apr-03 16:32N 01°46' E 102°30'1110.9
2015-Apr-03 15:29N 01°51' E 102°20'  

Dump ship's entire track history